sensor_id;sensor_type;location;lat;lon;timestamp;pressure;altitude;pressure_sealevel;temperature;humidity
62038;BME280;47991;42.974;12.082;2024-03-07T00:00:43;97809.95;;;1.08;94.79
62038;BME280;47991;42.974;12.082;2024-03-07T00:03:30;97814.91;;;0.99;94.43
62038;BME280;47991;42.974;12.082;2024-03-07T00:05:57;97819.57;;;0.94;94.56
62038;BME280;47991;42.974;12.082;2024-03-07T00:08:24;97816.61;;;0.95;94.09
62038;BME280;47991;42.974;12.082;2024-03-07T00:10:52;97818.70;;;0.94;94.15
62038;BME280;47991;42.974;12.082;2024-03-07T00:13:19;97817.95;;;0.90;93.78
62038;BME280;47991;42.974;12.082;2024-03-07T00:15:46;97817.21;;;0.86;93.77
62038;BME280;47991;42.974;12.082;2024-03-07T00:18:13;97815.98;;;0.85;93.53
62038;BME280;47991;42.974;12.082;2024-03-07T00:20:42;97820.13;;;0.82;93.90
62038;BME280;47991;42.974;12.082;2024-03-07T00:23:09;97824.31;;;0.82;93.95
62038;BME280;47991;42.974;12.082;2024-03-07T00:25:36;97822.00;;;0.78;94.06
62038;BME280;47991;42.974;12.082;2024-03-07T00:28:06;97822.50;;;0.75;94.31
62038;BME280;47991;42.974;12.082;2024-03-07T00:30:33;97825.11;;;0.76;94.28
62038;BME280;47991;42.974;12.082;2024-03-07T00:33:00;97822.33;;;0.77;94.44
62038;BME280;47991;42.974;12.082;2024-03-07T00:35:27;97819.19;;;0.75;94.54
62038;BME280;47991;42.974;12.082;2024-03-07T00:37:55;97816.91;;;0.74;94.32
62038;BME280;47991;42.974;12.082;2024-03-07T00:40:23;97816.91;;;0.73;94.34
62038;BME280;47991;42.974;12.082;2024-03-07T00:42:50;97815.00;;;0.75;94.35
62038;BME280;47991;42.974;12.082;2024-03-07T00:45:17;97813.81;;;0.77;94.37
62038;BME280;47991;42.974;12.082;2024-03-07T00:47:44;97812.43;;;0.78;94.37
62038;BME280;47991;42.974;12.082;2024-03-07T00:50:12;97808.42;;;0.76;93.92
62038;BME280;47991;42.974;12.082;2024-03-07T00:52:39;97812.70;;;0.71;93.76
62038;BME280;47991;42.974;12.082;2024-03-07T00:55:07;97809.20;;;0.70;94.42
62038;BME280;47991;42.974;12.082;2024-03-07T00:57:37;97807.48;;;0.71;94.48
62038;BME280;47991;42.974;12.082;2024-03-07T01:00:05;97809.72;;;0.68;94.07
62038;BME280;47991;42.974;12.082;2024-03-07T01:02:38;97812.97;;;0.64;94.44
62038;BME280;47991;42.974;12.082;2024-03-07T01:05:05;97816.13;;;0.65;94.34
62038;BME280;47991;42.974;12.082;2024-03-07T01:07:36;97815.25;;;0.65;94.12
62038;BME280;47991;42.974;12.082;2024-03-07T01:10:04;97814.83;;;0.59;93.93
62038;BME280;47991;42.974;12.082;2024-03-07T01:12:33;97816.70;;;0.56;94.51
62038;BME280;47991;42.974;12.082;2024-03-07T01:15:00;97819.95;;;0.51;94.23
62038;BME280;47991;42.974;12.082;2024-03-07T01:17:27;97811.42;;;0.50;94.61
62038;BME280;47991;42.974;12.082;2024-03-07T01:19:54;97808.64;;;0.51;94.61
62038;BME280;47991;42.974;12.082;2024-03-07T01:22:22;97799.43;;;0.52;94.86
62038;BME280;47991;42.974;12.082;2024-03-07T01:24:49;97799.92;;;0.50;95.60
62038;BME280;47991;42.974;12.082;2024-03-07T01:27:17;97794.70;;;0.48;95.15
62038;BME280;47991;42.974;12.082;2024-03-07T01:29:45;97791.68;;;0.44;95.30
62038;BME280;47991;42.974;12.082;2024-03-07T01:32:13;97792.70;;;0.42;95.53
62038;BME280;47991;42.974;12.082;2024-03-07T01:34:40;97790.33;;;0.46;95.12
62038;BME280;47991;42.974;12.082;2024-03-07T01:37:07;97791.95;;;0.51;95.28
62038;BME280;47991;42.974;12.082;2024-03-07T01:39:35;97793.73;;;0.55;95.46
62038;BME280;47991;42.974;12.082;2024-03-07T01:42:02;97793.61;;;0.59;95.48
62038;BME280;47991;42.974;12.082;2024-03-07T01:44:29;97796.30;;;0.66;95.61
62038;BME280;47991;42.974;12.082;2024-03-07T01:46:59;97794.21;;;0.67;95.85
62038;BME280;47991;42.974;12.082;2024-03-07T01:49:30;97790.89;;;0.65;95.17
62038;BME280;47991;42.974;12.082;2024-03-07T01:51:58;97794.17;;;0.64;94.98
62038;BME280;47991;42.974;12.082;2024-03-07T01:54:26;97795.57;;;0.63;94.60
62038;BME280;47991;42.974;12.082;2024-03-07T01:56:55;97792.48;;;0.53;94.32
62038;BME280;47991;42.974;12.082;2024-03-07T01:59:23;97790.57;;;0.38;94.61
62038;BME280;47991;42.974;12.082;2024-03-07T02:01:51;97793.98;;;0.33;95.04
62038;BME280;47991;42.974;12.082;2024-03-07T02:04:18;97793.96;;;0.30;95.16
62038;BME280;47991;42.974;12.082;2024-03-07T02:06:46;97793.10;;;0.32;95.82
62038;BME280;47991;42.974;12.082;2024-03-07T02:09:13;97793.48;;;0.34;95.64
62038;BME280;47991;42.974;12.082;2024-03-07T02:11:41;97792.30;;;0.37;95.32
62038;BME280;47991;42.974;12.082;2024-03-07T02:14:09;97788.31;;;0.38;95.30
62038;BME280;47991;42.974;12.082;2024-03-07T02:16:36;97786.75;;;0.38;95.16
62038;BME280;47991;42.974;12.082;2024-03-07T02:19:03;97791.11;;;0.39;95.12
62038;BME280;47991;42.974;12.082;2024-03-07T02:21:30;97793.24;;;0.44;95.27
62038;BME280;47991;42.974;12.082;2024-03-07T02:23:57;97788.77;;;0.48;95.28
62038;BME280;47991;42.974;12.082;2024-03-07T02:26:24;97790.34;;;0.48;95.07
62038;BME280;47991;42.974;12.082;2024-03-07T02:28:52;97790.48;;;0.46;94.95
62038;BME280;47991;42.974;12.082;2024-03-07T02:31:19;97787.84;;;0.42;94.69
62038;BME280;47991;42.974;12.082;2024-03-07T02:33:46;97787.04;;;0.33;94.40
62038;BME280;47991;42.974;12.082;2024-03-07T02:36:13;97791.13;;;0.26;95.10
62038;BME280;47991;42.974;12.082;2024-03-07T02:38:40;97793.55;;;0.26;95.11
62038;BME280;47991;42.974;12.082;2024-03-07T02:41:07;97792.70;;;0.27;95.31
62038;BME280;47991;42.974;12.082;2024-03-07T02:43:34;97790.96;;;0.27;95.44
62038;BME280;47991;42.974;12.082;2024-03-07T02:46:04;97787.36;;;0.31;95.31
62038;BME280;47991;42.974;12.082;2024-03-07T02:48:32;97793.27;;;0.30;95.27
62038;BME280;47991;42.974;12.082;2024-03-07T02:50:59;97793.09;;;0.32;95.01
62038;BME280;47991;42.974;12.082;2024-03-07T02:53:26;97788.13;;;0.36;95.01
62038;BME280;47991;42.974;12.082;2024-03-07T02:55:53;97789.57;;;0.41;94.87
62038;BME280;47991;42.974;12.082;2024-03-07T02:58:21;97789.24;;;0.43;94.89
62038;BME280;47991;42.974;12.082;2024-03-07T03:00:48;97791.48;;;0.42;94.60
62038;BME280;47991;42.974;12.082;2024-03-07T03:03:16;97790.70;;;0.35;94.52
62038;BME280;47991;42.974;12.082;2024-03-07T03:05:42;97795.53;;;0.31;94.43
62038;BME280;47991;42.974;12.082;2024-03-07T03:08:09;97796.75;;;0.31;94.90
62038;BME280;47991;42.974;12.082;2024-03-07T03:10:36;97799.55;;;0.32;95.01
62038;BME280;47991;42.974;12.082;2024-03-07T03:13:03;97802.73;;;0.36;95.12
62038;BME280;47991;42.974;12.082;2024-03-07T03:15:30;97797.73;;;0.40;95.16
62038;BME280;47991;42.974;12.082;2024-03-07T03:17:58;97799.54;;;0.46;95.03
62038;BME280;47991;42.974;12.082;2024-03-07T03:20:28;97800.48;;;0.52;95.02
62038;BME280;47991;42.974;12.082;2024-03-07T03:23:01;97806.10;;;0.58;95.12
62038;BME280;47991;42.974;12.082;2024-03-07T03:25:32;97802.01;;;0.64;95.37
62038;BME280;47991;42.974;12.082;2024-03-07T03:28:02;97806.57;;;0.66;95.07
62038;BME280;47991;42.974;12.082;2024-03-07T03:30:30;97806.77;;;0.69;95.25
62038;BME280;47991;42.974;12.082;2024-03-07T03:32:59;97811.01;;;0.74;95.57
62038;BME280;47991;42.974;12.082;2024-03-07T03:35:27;97809.48;;;0.78;95.68
62038;BME280;47991;42.974;12.082;2024-03-07T03:37:54;97809.69;;;0.82;95.64
62038;BME280;47991;42.974;12.082;2024-03-07T03:40:21;97805.19;;;0.84;95.84
62038;BME280;47991;42.974;12.082;2024-03-07T03:42:48;97809.21;;;0.85;95.87
62038;BME280;47991;42.974;12.082;2024-03-07T03:45:15;97808.71;;;0.89;96.23
62038;BME280;47991;42.974;12.082;2024-03-07T03:47:43;97809.64;;;0.95;96.77
62038;BME280;47991;42.974;12.082;2024-03-07T03:50:11;97806.52;;;0.94;98.99
62038;BME280;47991;42.974;12.082;2024-03-07T03:52:40;97808.79;;;0.95;98.43
62038;BME280;47991;42.974;12.082;2024-03-07T03:55:08;97807.20;;;0.93;97.59
62038;BME280;47991;42.974;12.082;2024-03-07T03:57:39;97809.67;;;0.97;97.38
62038;BME280;47991;42.974;12.082;2024-03-07T04:00:09;97807.48;;;1.03;97.59
62038;BME280;47991;42.974;12.082;2024-03-07T04:02:44;97802.64;;;1.08;97.32
62038;BME280;47991;42.974;12.082;2024-03-07T04:05:16;97799.20;;;1.11;97.36
62038;BME280;47991;42.974;12.082;2024-03-07T04:07:44;97799.34;;;1.08;97.17
62038;BME280;47991;42.974;12.082;2024-03-07T04:10:12;97799.48;;;1.05;97.20
62038;BME280;47991;42.974;12.082;2024-03-07T04:12:40;97805.58;;;1.06;97.23
62038;BME280;47991;42.974;12.082;2024-03-07T04:15:10;97807.89;;;1.10;97.41
62038;BME280;47991;42.974;12.082;2024-03-07T04:17:37;97805.86;;;1.16;97.61
62038;BME280;47991;42.974;12.082;2024-03-07T04:20:06;97807.96;;;1.18;97.63
62038;BME280;47991;42.974;12.082;2024-03-07T04:22:34;97806.94;;;1.21;97.84
62038;BME280;47991;42.974;12.082;2024-03-07T04:25:02;97807.17;;;1.26;97.94
62038;BME280;47991;42.974;12.082;2024-03-07T04:27:29;97806.70;;;1.31;98.27
62038;BME280;47991;42.974;12.082;2024-03-07T04:29:57;97808.96;;;1.31;97.99
62038;BME280;47991;42.974;12.082;2024-03-07T04:32:25;97807.58;;;1.31;97.83
62038;BME280;47991;42.974;12.082;2024-03-07T04:34:52;97804.77;;;1.31;97.49
62038;BME280;47991;42.974;12.082;2024-03-07T04:37:20;97807.02;;;1.28;97.55
62038;BME280;47991;42.974;12.082;2024-03-07T04:39:48;97803.54;;;1.28;97.71
62038;BME280;47991;42.974;12.082;2024-03-07T04:42:15;97805.29;;;1.29;97.66
62038;BME280;47991;42.974;12.082;2024-03-07T04:44:42;97797.81;;;1.30;98.36
62038;BME280;47991;42.974;12.082;2024-03-07T04:47:09;97798.68;;;1.31;98.30
62038;BME280;47991;42.974;12.082;2024-03-07T04:49:36;97798.16;;;1.30;97.95
62038;BME280;47991;42.974;12.082;2024-03-07T04:52:03;97798.87;;;1.32;97.81
62038;BME280;47991;42.974;12.082;2024-03-07T04:54:31;97803.05;;;1.33;97.94
62038;BME280;47991;42.974;12.082;2024-03-07T04:56:58;97805.01;;;1.37;98.30
62038;BME280;47991;42.974;12.082;2024-03-07T04:59:25;97802.23;;;1.41;98.26
62038;BME280;47991;42.974;12.082;2024-03-07T05:01:53;97800.02;;;1.45;98.36
62038;BME280;47991;42.974;12.082;2024-03-07T05:04:20;97798.11;;;1.48;98.36
62038;BME280;47991;42.974;12.082;2024-03-07T05:06:47;97797.64;;;1.52;98.50
62038;BME280;47991;42.974;12.082;2024-03-07T05:09:16;97800.11;;;1.56;99.03
62038;BME280;47991;42.974;12.082;2024-03-07T05:11:50;97795.60;;;1.59;99.06
62038;BME280;47991;42.974;12.082;2024-03-07T05:14:20;97799.63;;;1.62;98.80
62038;BME280;47991;42.974;12.082;2024-03-07T05:16:48;97800.48;;;1.60;98.82
62038;BME280;47991;42.974;12.082;2024-03-07T05:19:35;97803.63;;;1.60;99.15
62038;BME280;47991;42.974;12.082;2024-03-07T05:22:02;97802.04;;;1.59;99.44
62038;BME280;47991;42.974;12.082;2024-03-07T05:24:32;97805.69;;;1.58;99.65
62038;BME280;47991;42.974;12.082;2024-03-07T05:27:00;97811.61;;;1.58;99.60
62038;BME280;47991;42.974;12.082;2024-03-07T05:29:27;97811.45;;;1.60;99.56
62038;BME280;47991;42.974;12.082;2024-03-07T05:31:54;97816.88;;;1.60;99.19
62038;BME280;47991;42.974;12.082;2024-03-07T05:34:21;97817.20;;;1.59;98.86
62038;BME280;47991;42.974;12.082;2024-03-07T05:36:49;97817.19;;;1.56;99.27
62038;BME280;47991;42.974;12.082;2024-03-07T05:39:17;97816.81;;;1.53;99.25
62038;BME280;47991;42.974;12.082;2024-03-07T05:41:44;97819.93;;;1.50;99.81
62038;BME280;47991;42.974;12.082;2024-03-07T05:44:12;97826.52;;;1.46;99.94
62038;BME280;47991;42.974;12.082;2024-03-07T05:46:40;97828.42;;;1.46;99.74
62038;BME280;47991;42.974;12.082;2024-03-07T05:49:15;97833.13;;;1.46;99.82
62038;BME280;47991;42.974;12.082;2024-03-07T05:51:43;97832.60;;;1.46;99.84
62038;BME280;47991;42.974;12.082;2024-03-07T05:54:12;97830.47;;;1.41;99.92
62038;BME280;47991;42.974;12.082;2024-03-07T05:56:40;97831.16;;;1.40;99.97
62038;BME280;47991;42.974;12.082;2024-03-07T05:59:08;97834.45;;;1.38;99.98
62038;BME280;47991;42.974;12.082;2024-03-07T06:01:38;97832.87;;;1.36;100.00
62038;BME280;47991;42.974;12.082;2024-03-07T06:04:06;97836.70;;;1.37;100.00
62038;BME280;47991;42.974;12.082;2024-03-07T06:06:34;97836.71;;;1.38;99.99
62038;BME280;47991;42.974;12.082;2024-03-07T06:09:03;97837.26;;;1.41;100.00
62038;BME280;47991;42.974;12.082;2024-03-07T06:11:38;97834.84;;;1.41;99.95
62038;BME280;47991;42.974;12.082;2024-03-07T06:14:06;97836.02;;;1.39;99.98
62038;BME280;47991;42.974;12.082;2024-03-07T06:16:37;97836.22;;;1.41;100.00
62038;BME280;47991;42.974;12.082;2024-03-07T06:19:05;97840.06;;;1.44;99.90
62038;BME280;47991;42.974;12.082;2024-03-07T06:21:35;97841.66;;;1.45;99.86
62038;BME280;47991;42.974;12.082;2024-03-07T06:24:02;97844.29;;;1.47;100.00
62038;BME280;47991;42.974;12.082;2024-03-07T06:26:31;97843.27;;;1.50;99.98
62038;BME280;47991;42.974;12.082;2024-03-07T06:29:21;97845.37;;;1.51;100.00
62038;BME280;47991;42.974;12.082;2024-03-07T06:31:48;97848.89;;;1.56;100.00
62038;BME280;47991;42.974;12.082;2024-03-07T06:34:16;97848.23;;;1.60;100.00
62038;BME280;47991;42.974;12.082;2024-03-07T06:36:44;97849.83;;;1.65;100.00
62038;BME280;47991;42.974;12.082;2024-03-07T06:39:11;97855.43;;;1.69;100.00
62038;BME280;47991;42.974;12.082;2024-03-07T06:41:39;97856.70;;;1.74;100.00
62038;BME280;47991;42.974;12.082;2024-03-07T06:44:06;97857.43;;;1.77;100.00
62038;BME280;47991;42.974;12.082;2024-03-07T06:46:34;97858.86;;;1.83;100.00
62038;BME280;47991;42.974;12.082;2024-03-07T06:49:01;97853.87;;;1.91;100.00
62038;BME280;47991;42.974;12.082;2024-03-07T06:51:28;97853.23;;;1.98;100.00
62038;BME280;47991;42.974;12.082;2024-03-07T06:53:55;97850.67;;;2.07;100.00
62038;BME280;47991;42.974;12.082;2024-03-07T06:56:22;97844.29;;;2.18;100.00
62038;BME280;47991;42.974;12.082;2024-03-07T06:58:50;97840.53;;;2.30;100.00
62038;BME280;47991;42.974;12.082;2024-03-07T07:01:17;97841.42;;;2.35;100.00
62038;BME280;47991;42.974;12.082;2024-03-07T07:03:46;97843.32;;;2.32;100.00
62038;BME280;47991;42.974;12.082;2024-03-07T07:06:14;97841.59;;;2.34;100.00
62038;BME280;47991;42.974;12.082;2024-03-07T07:08:41;97843.17;;;2.36;100.00
62038;BME280;47991;42.974;12.082;2024-03-07T07:11:08;97852.61;;;2.40;100.00
62038;BME280;47991;42.974;12.082;2024-03-07T07:13:38;97854.70;;;2.40;100.00
62038;BME280;47991;42.974;12.082;2024-03-07T07:16:11;97857.35;;;2.46;100.00
62038;BME280;47991;42.974;12.082;2024-03-07T07:18:38;97860.34;;;2.50;100.00
62038;BME280;47991;42.974;12.082;2024-03-07T07:21:05;97861.77;;;2.55;100.00
62038;BME280;47991;42.974;12.082;2024-03-07T07:23:38;97862.64;;;2.57;100.00
62038;BME280;47991;42.974;12.082;2024-03-07T07:26:05;97865.08;;;2.58;100.00
62038;BME280;47991;42.974;12.082;2024-03-07T07:28:32;97869.62;;;2.58;100.00
62038;BME280;47991;42.974;12.082;2024-03-07T07:30:59;97873.33;;;2.64;100.00
62038;BME280;47991;42.974;12.082;2024-03-07T07:33:28;97873.05;;;2.80;100.00
62038;BME280;47991;42.974;12.082;2024-03-07T07:35:55;97880.06;;;2.88;100.00
62038;BME280;47991;42.974;12.082;2024-03-07T07:38:22;97879.58;;;2.93;100.00
62038;BME280;47991;42.974;12.082;2024-03-07T07:40:49;97880.98;;;3.04;100.00
62038;BME280;47991;42.974;12.082;2024-03-07T07:43:17;97885.73;;;3.13;100.00
62038;BME280;47991;42.974;12.082;2024-03-07T07:45:44;97883.83;;;3.20;100.00
62038;BME280;47991;42.974;12.082;2024-03-07T07:48:11;97884.37;;;3.24;100.00
62038;BME280;47991;42.974;12.082;2024-03-07T07:50:38;97889.95;;;3.18;100.00
62038;BME280;47991;42.974;12.082;2024-03-07T07:53:05;97891.69;;;3.15;100.00
62038;BME280;47991;42.974;12.082;2024-03-07T07:55:35;97890.45;;;3.13;100.00
62038;BME280;47991;42.974;12.082;2024-03-07T07:58:03;97892.91;;;3.17;100.00
62038;BME280;47991;42.974;12.082;2024-03-07T08:00:30;97891.17;;;3.19;100.00
62038;BME280;47991;42.974;12.082;2024-03-07T08:02:58;97892.94;;;3.25;100.00
62038;BME280;47991;42.974;12.082;2024-03-07T08:05:27;97891.74;;;3.35;100.00
62038;BME280;47991;42.974;12.082;2024-03-07T08:07:56;97893.69;;;3.48;100.00
62038;BME280;47991;42.974;12.082;2024-03-07T08:10:26;97902.27;;;3.55;100.00
62038;BME280;47991;42.974;12.082;2024-03-07T08:12:57;97896.67;;;3.55;100.00
62038;BME280;47991;42.974;12.082;2024-03-07T08:15:26;97894.92;;;3.52;100.00
62038;BME280;47991;42.974;12.082;2024-03-07T08:17:55;97891.08;;;3.61;100.00
62038;BME280;47991;42.974;12.082;2024-03-07T08:20:23;97889.34;;;3.70;100.00
62038;BME280;47991;42.974;12.082;2024-03-07T08:22:55;97889.35;;;3.82;100.00
62038;BME280;47991;42.974;12.082;2024-03-07T08:25:25;97888.48;;;3.96;100.00
62038;BME280;47991;42.974;12.082;2024-03-07T08:27:57;97889.86;;;4.19;100.00
62038;BME280;47991;42.974;12.082;2024-03-07T08:30:25;97893.36;;;4.25;100.00
62038;BME280;47991;42.974;12.082;2024-03-07T08:32:56;97890.21;;;4.16;100.00
62038;BME280;47991;42.974;12.082;2024-03-07T08:35:24;97883.54;;;4.35;100.00
62038;BME280;47991;42.974;12.082;2024-03-07T08:37:53;97881.81;;;4.30;100.00
62038;BME280;47991;42.974;12.082;2024-03-07T08:40:21;97881.80;;;4.40;100.00
62038;BME280;47991;42.974;12.082;2024-03-07T08:42:51;97883.36;;;4.43;100.00
62038;BME280;47991;42.974;12.082;2024-03-07T08:45:18;97885.41;;;4.63;100.00
62038;BME280;47991;42.974;12.082;2024-03-07T08:47:47;97887.44;;;4.87;100.00
62038;BME280;47991;42.974;12.082;2024-03-07T08:50:15;97885.12;;;5.32;100.00
62038;BME280;47991;42.974;12.082;2024-03-07T08:52:45;97885.09;;;5.91;100.00
62038;BME280;47991;42.974;12.082;2024-03-07T08:55:13;97882.55;;;6.22;100.00
62038;BME280;47991;42.974;12.082;2024-03-07T08:57:42;97878.26;;;6.13;99.27
62038;BME280;47991;42.974;12.082;2024-03-07T09:00:12;97876.40;;;6.24;99.23
62038;BME280;47991;42.974;12.082;2024-03-07T09:05:22;97879.23;;;6.58;100.00
62038;BME280;47991;42.974;12.082;2024-03-07T09:07:49;97876.18;;;6.64;99.98
62038;BME280;47991;42.974;12.082;2024-03-07T09:10:17;97876.24;;;6.73;99.00
62038;BME280;47991;42.974;12.082;2024-03-07T09:12:45;97882.33;;;6.64;97.55
62038;BME280;47991;42.974;12.082;2024-03-07T09:15:12;97881.52;;;6.73;99.09
62038;BME280;47991;42.974;12.082;2024-03-07T09:17:39;97880.56;;;6.80;99.64
62038;BME280;47991;42.974;12.082;2024-03-07T09:20:08;97879.98;;;6.85;100.00
62038;BME280;47991;42.974;12.082;2024-03-07T09:22:42;97876.77;;;6.89;99.64
62038;BME280;47991;42.974;12.082;2024-03-07T09:25:09;97874.65;;;6.75;98.14
62038;BME280;47991;42.974;12.082;2024-03-07T09:27:37;97881.17;;;6.56;98.07
62038;BME280;47991;42.974;12.082;2024-03-07T09:30:05;97883.34;;;6.33;98.60
62038;BME280;47991;42.974;12.082;2024-03-07T09:32:39;97885.85;;;6.08;99.38
62038;BME280;47991;42.974;12.082;2024-03-07T09:35:10;97885.08;;;5.92;99.95
62038;BME280;47991;42.974;12.082;2024-03-07T09:37:41;97883.61;;;6.02;100.00
62038;BME280;47991;42.974;12.082;2024-03-07T09:40:10;97885.73;;;6.02;100.00
62038;BME280;47991;42.974;12.082;2024-03-07T09:42:45;97884.05;;;6.13;100.00
62038;BME280;47991;42.974;12.082;2024-03-07T09:45:17;97886.68;;;6.14;99.42
62038;BME280;47991;42.974;12.082;2024-03-07T09:47:48;97883.73;;;6.29;99.86
62038;BME280;47991;42.974;12.082;2024-03-07T09:50:17;97883.86;;;6.68;98.37
62038;BME280;47991;42.974;12.082;2024-03-07T09:52:52;97880.88;;;6.97;98.61
62038;BME280;47991;42.974;12.082;2024-03-07T09:55:20;97880.17;;;7.38;97.24
62038;BME280;47991;42.974;12.082;2024-03-07T09:57:48;97876.47;;;7.27;91.87
62038;BME280;47991;42.974;12.082;2024-03-07T10:00:17;97874.90;;;7.39;94.28
62038;BME280;47991;42.974;12.082;2024-03-07T10:03:02;97872.83;;;7.48;92.20
62038;BME280;47991;42.974;12.082;2024-03-07T10:05:33;97871.12;;;7.57;92.21
62038;BME280;47991;42.974;12.082;2024-03-07T10:08:01;97871.10;;;7.58;90.37
62038;BME280;47991;42.974;12.082;2024-03-07T10:10:28;97869.16;;;7.81;90.44
62038;BME280;47991;42.974;12.082;2024-03-07T10:12:58;97869.88;;;8.03;90.62
62038;BME280;47991;42.974;12.082;2024-03-07T10:15:29;97868.98;;;8.04;90.37
62038;BME280;47991;42.974;12.082;2024-03-07T10:17:57;97870.85;;;8.07;89.34
62038;BME280;47991;42.974;12.082;2024-03-07T10:20:24;97867.33;;;8.29;88.76
62038;BME280;47991;42.974;12.082;2024-03-07T10:22:51;97867.66;;;8.39;88.15
62038;BME280;47991;42.974;12.082;2024-03-07T10:25:20;97863.02;;;8.72;89.20
62038;BME280;47991;42.974;12.082;2024-03-07T10:27:51;97866.49;;;9.02;88.13
62038;BME280;47991;42.974;12.082;2024-03-07T10:30:18;97864.45;;;9.32;89.47
62038;BME280;47991;42.974;12.082;2024-03-07T10:32:56;97861.89;;;9.61;88.50
62038;BME280;47991;42.974;12.082;2024-03-07T10:35:25;97860.89;;;9.72;84.44
62038;BME280;47991;42.974;12.082;2024-03-07T10:37:56;97863.89;;;9.80;84.29
62038;BME280;47991;42.974;12.082;2024-03-07T10:40:26;97865.41;;;9.97;83.06
62038;BME280;47991;42.974;12.082;2024-03-07T10:42:57;97865.42;;;10.12;82.56
62038;BME280;47991;42.974;12.082;2024-03-07T10:45:28;97864.65;;;9.93;80.74
62038;BME280;47991;42.974;12.082;2024-03-07T10:47:58;97868.29;;;9.88;81.82
62038;BME280;47991;42.974;12.082;2024-03-07T10:58:58;97859.16;;;9.79;81.07
62038;BME280;47991;42.974;12.082;2024-03-07T11:01:31;97855.35;;;9.97;80.50
62038;BME280;47991;42.974;12.082;2024-03-07T11:04:00;97851.08;;;10.06;81.65
62038;BME280;47991;42.974;12.082;2024-03-07T11:06:32;97851.73;;;10.44;81.21
62038;BME280;47991;42.974;12.082;2024-03-07T11:09:04;97851.89;;;10.58;79.72
62038;BME280;47991;42.974;12.082;2024-03-07T11:11:38;97851.95;;;10.75;79.71
62038;BME280;47991;42.974;12.082;2024-03-07T11:14:08;97851.30;;;10.93;78.69
62038;BME280;47991;42.974;12.082;2024-03-07T11:16:41;97852.61;;;10.83;77.89
62038;BME280;47991;42.974;12.082;2024-03-07T11:19:25;97851.73;;;10.57;78.23
62038;BME280;47991;42.974;12.082;2024-03-07T11:21:57;97849.20;;;10.59;76.99
62038;BME280;47991;42.974;12.082;2024-03-07T11:24:28;97847.68;;;10.63;78.40
62038;BME280;47991;42.974;12.082;2024-03-07T11:26:56;97845.44;;;10.61;77.70
62038;BME280;47991;42.974;12.082;2024-03-07T11:29:47;97847.71;;;10.27;76.99
62038;BME280;47991;42.974;12.082;2024-03-07T11:32:15;97838.37;;;10.06;78.37
62038;BME280;47991;42.974;12.082;2024-03-07T11:34:44;97834.66;;;9.98;78.52
62038;BME280;47991;42.974;12.082;2024-03-07T11:37:17;97836.23;;;9.84;77.00
62038;BME280;47991;42.974;12.082;2024-03-07T11:39:46;97829.74;;;10.12;79.39
62038;BME280;47991;42.974;12.082;2024-03-07T11:42:24;97826.84;;;10.55;79.38
62038;BME280;47991;42.974;12.082;2024-03-07T11:45:00;97824.07;;;10.92;77.15
62038;BME280;47991;42.974;12.082;2024-03-07T11:47:37;97825.30;;;11.22;77.64
62038;BME280;47991;42.974;12.082;2024-03-07T11:50:06;97822.92;;;11.42;74.53
62038;BME280;47991;42.974;12.082;2024-03-07T11:52:38;97822.52;;;11.50;72.29
62038;BME280;47991;42.974;12.082;2024-03-07T11:55:13;97820.20;;;11.50;72.50
62038;BME280;47991;42.974;12.082;2024-03-07T11:57:40;97821.34;;;11.70;73.58
62038;BME280;47991;42.974;12.082;2024-03-07T12:00:12;97815.04;;;11.85;71.09
62038;BME280;47991;42.974;12.082;2024-03-07T12:02:41;97812.17;;;11.97;70.23
62038;BME280;47991;42.974;12.082;2024-03-07T12:05:10;97814.77;;;11.99;69.12
62038;BME280;47991;42.974;12.082;2024-03-07T12:07:37;97810.52;;;12.09;71.00
62038;BME280;47991;42.974;12.082;2024-03-07T12:10:04;97811.66;;;12.12;71.04
62038;BME280;47991;42.974;12.082;2024-03-07T12:12:32;97809.23;;;12.11;71.44
62038;BME280;47991;42.974;12.082;2024-03-07T12:15:09;97807.23;;;12.01;69.84
62038;BME280;47991;42.974;12.082;2024-03-07T12:17:46;97799.68;;;11.77;71.10
62038;BME280;47991;42.974;12.082;2024-03-07T12:20:17;97798.21;;;11.84;70.55
62038;BME280;47991;42.974;12.082;2024-03-07T12:23:00;97795.94;;;11.73;68.43
62038;BME280;47991;42.974;12.082;2024-03-07T12:25:32;97792.59;;;11.56;68.76
62038;BME280;47991;42.974;12.082;2024-03-07T12:28:12;97790.09;;;11.39;67.84
62038;BME280;47991;42.974;12.082;2024-03-07T12:33:13;97787.23;;;10.99;72.22
62038;BME280;47991;42.974;12.082;2024-03-07T12:35:47;97785.94;;;11.31;71.67
62038;BME280;47991;42.974;12.082;2024-03-07T12:38:16;97777.70;;;11.39;69.50
62038;BME280;47991;42.974;12.082;2024-03-07T12:40:44;97777.66;;;11.51;70.40
62038;BME280;47991;42.974;12.082;2024-03-07T12:43:22;97779.91;;;11.53;70.59
62038;BME280;47991;42.974;12.082;2024-03-07T12:45:50;97770.64;;;11.72;69.29
62038;BME280;47991;42.974;12.082;2024-03-07T12:48:18;97773.21;;;11.74;69.24
62038;BME280;47991;42.974;12.082;2024-03-07T12:50:49;97771.84;;;11.89;67.77
62038;BME280;47991;42.974;12.082;2024-03-07T12:53:22;97769.71;;;11.79;66.16
62038;BME280;47991;42.974;12.082;2024-03-07T12:55:52;97767.89;;;12.23;68.21
62038;BME280;47991;42.974;12.082;2024-03-07T12:58:19;97768.15;;;12.35;65.63
62038;BME280;47991;42.974;12.082;2024-03-07T13:00:53;97762.85;;;12.25;65.50
62038;BME280;47991;42.974;12.082;2024-03-07T13:03:26;97763.16;;;12.41;68.00
62038;BME280;47991;42.974;12.082;2024-03-07T13:06:00;97762.38;;;12.73;66.85
62038;BME280;47991;42.974;12.082;2024-03-07T13:08:31;97761.14;;;12.96;66.32
62038;BME280;47991;42.974;12.082;2024-03-07T13:10:58;97759.39;;;13.00;64.03
62038;BME280;47991;42.974;12.082;2024-03-07T13:13:28;97764.27;;;12.69;63.01
62038;BME280;47991;42.974;12.082;2024-03-07T13:15:55;97764.48;;;12.48;64.61
62038;BME280;47991;42.974;12.082;2024-03-07T13:18:23;97764.91;;;12.26;65.24